Auburn, NY

10:25 PM EST on December 24, 2014 (GMT -0500)
Syracuse Hancock International | Change Station
CLOSE
Current Station
Airport
Location: Syracuse,
Elevation: 420 ft
Nearby Weather Stations
Active Advisory: Wind Advisory

Elev 420 ft 43.11 °N, 76.10 °W | Updated 31 minutes ago

Overcast
Overcast
46 °F
Feels Like 44 °F
N
5
Wind Variable Wind from East

Today
High -- | Low -- °F
--% Chance of Precip.
Yesterday
High -- | Low -- °F
Precip. -- in
7:35 AM 4:36 PM
Waxing Crescent, 13% visible
Pressure 29.36 in
Visibility 10.0 miles
Clouds Mostly Cloudy 1900 ft
Overcast 2400 ft
Windchill 44 °F
Dew Point 46 °F
Humidity 100%
Rainfall 0.43 in
Snow Depth Not available.
UV 0 out of 12
Pollen .10 out of 12
Air Quality Not available.
Flu Activity Not available.
METAR KSYR 250254Z 09004KT 10SM BKN019 OVC024 08/08 A2936 RMK AO2 SLP941 T00780078 58024 $

More Conditions Fewer Conditions

Pressure 29.36 in
Visibility 10.0 miles
Clouds Mostly Cloudy 1900 ft
Overcast 2400 ft
Windchill 44 °F
Dew Point 46 °F
Humidity 100%
Rainfall 0.43 in
Snow Depth Not available.
UV 0 out of 12
Pollen .10 out of 12
Air Quality Not available.
Flu Activity Not available.
METAR KSYR 250254Z 09004KT 10SM BKN019 OVC024 08/08 A2936 RMK AO2 SLP941 T00780078 58024 $

More Conditions Fewer Conditions

10-Day Weather Forecast

Almanac

Astronomy

Dec. 24, 2014 Rise Set
Actual Time
Civil Twilight
Nautical Twilight
Astronomical Twilight
Moon
Length of Visible Light
Length of Day
Tomorrow will be .
, % of the Moon is Illuminated

Today's Extremes

State Highs State Lows

Community

WunderPhotos

Upload Photos

1,780,221 photos uploaded!

WunderBlogs® & News

Nearby

Air Quality

  Air Quality AQ Index Pollutant
Not available.

Snow Depth

Station Depth Elevation

Earthquake Activity

City Distance Mag. Time & Date
Minimum magnitude displayed is 2.5.

Coastal Water Temperatures

Place Temperature

Nearby Weather Stations